sensor_id;sensor_type;location;lat;lon;timestamp;P1;durP1;ratioP1;P2;durP2;ratioP2
37983;SDS011;64625;50.882;4.376;2023-03-23T00:01:56;10.27;;;4.30;;
37983;SDS011;64625;50.882;4.376;2023-03-23T00:04:23;9.30;;;5.53;;
37983;SDS011;64625;50.882;4.376;2023-03-23T00:06:52;11.52;;;5.15;;
37983;SDS011;64625;50.882;4.376;2023-03-23T00:09:19;11.90;;;5.63;;
37983;SDS011;64625;50.882;4.376;2023-03-23T00:11:49;7.82;;;5.35;;
37983;SDS011;64625;50.882;4.376;2023-03-23T00:14:15;13.68;;;6.20;;
37983;SDS011;64625;50.882;4.376;2023-03-23T00:19:14;8.23;;;5.05;;
37983;SDS011;64625;50.882;4.376;2023-03-23T00:21:41;16.10;;;6.00;;
37983;SDS011;64625;50.882;4.376;2023-03-23T00:24:12;13.52;;;4.78;;
37983;SDS011;64625;50.882;4.376;2023-03-23T00:26:41;10.57;;;4.47;;
37983;SDS011;64625;50.882;4.376;2023-03-23T00:29:13;6.90;;;4.22;;
37983;SDS011;64625;50.882;4.376;2023-03-23T00:31:44;8.52;;;4.93;;
37983;SDS011;64625;50.882;4.376;2023-03-23T00:34:14;5.75;;;4.32;;
37983;SDS011;64625;50.882;4.376;2023-03-23T00:39:18;6.00;;;3.97;;
37983;SDS011;64625;50.882;4.376;2023-03-23T00:41:45;9.35;;;3.88;;
37983;SDS011;64625;50.882;4.376;2023-03-23T00:44:13;4.20;;;3.58;;
37983;SDS011;64625;50.882;4.376;2023-03-23T00:46:45;7.78;;;3.67;;
37983;SDS011;64625;50.882;4.376;2023-03-23T00:49:14;5.80;;;4.30;;
37983;SDS011;64625;50.882;4.376;2023-03-23T00:51:42;4.90;;;4.05;;
37983;SDS011;64625;50.882;4.376;2023-03-23T00:54:08;7.35;;;3.90;;
37983;SDS011;64625;50.882;4.376;2023-03-23T00:56:35;6.75;;;3.60;;
37983;SDS011;64625;50.882;4.376;2023-03-23T00:59:02;4.60;;;3.58;;
37983;SDS011;64625;50.882;4.376;2023-03-23T01:01:28;5.35;;;3.63;;
37983;SDS011;64625;50.882;4.376;2023-03-23T01:03:55;6.85;;;4.90;;
37983;SDS011;64625;50.882;4.376;2023-03-23T01:06:48;7.40;;;3.83;;
37983;SDS011;64625;50.882;4.376;2023-03-23T01:09:16;7.03;;;3.40;;
37983;SDS011;64625;50.882;4.376;2023-03-23T01:11:45;8.73;;;4.90;;
37983;SDS011;64625;50.882;4.376;2023-03-23T01:14:12;7.47;;;5.30;;
37983;SDS011;64625;50.882;4.376;2023-03-23T01:16:40;8.95;;;4.70;;
37983;SDS011;64625;50.882;4.376;2023-03-23T01:19:06;5.28;;;4.07;;
37983;SDS011;64625;50.882;4.376;2023-03-23T01:21:32;5.43;;;4.30;;
37983;SDS011;64625;50.882;4.376;2023-03-23T01:23:58;14.13;;;4.35;;
37983;SDS011;64625;50.882;4.376;2023-03-23T01:26:25;11.18;;;4.03;;
37983;SDS011;64625;50.882;4.376;2023-03-23T01:28:54;7.95;;;3.88;;
37983;SDS011;64625;50.882;4.376;2023-03-23T01:31:24;6.30;;;4.15;;
37983;SDS011;64625;50.882;4.376;2023-03-23T01:33:51;5.15;;;3.70;;
37983;SDS011;64625;50.882;4.376;2023-03-23T01:36:18;6.32;;;3.63;;
37983;SDS011;64625;50.882;4.376;2023-03-23T01:38:47;9.57;;;3.95;;
37983;SDS011;64625;50.882;4.376;2023-03-23T01:41:15;4.60;;;3.25;;
37983;SDS011;64625;50.882;4.376;2023-03-23T01:43:54;9.80;;;3.75;;
37983;SDS011;64625;50.882;4.376;2023-03-23T01:46:20;5.78;;;3.53;;
37983;SDS011;64625;50.882;4.376;2023-03-23T01:48:49;4.05;;;3.45;;
37983;SDS011;64625;50.882;4.376;2023-03-23T01:51:16;9.63;;;4.07;;
37983;SDS011;64625;50.882;4.376;2023-03-23T01:53:51;5.65;;;3.85;;
37983;SDS011;64625;50.882;4.376;2023-03-23T01:56:25;5.60;;;3.58;;
37983;SDS011;64625;50.882;4.376;2023-03-23T01:58:57;6.65;;;4.60;;
37983;SDS011;64625;50.882;4.376;2023-03-23T02:01:23;5.70;;;3.28;;
37983;SDS011;64625;50.882;4.376;2023-03-23T02:03:51;6.97;;;4.00;;
37983;SDS011;64625;50.882;4.376;2023-03-23T02:06:19;3.78;;;3.15;;
37983;SDS011;64625;50.882;4.376;2023-03-23T02:08:45;3.80;;;2.88;;
37983;SDS011;64625;50.882;4.376;2023-03-23T02:11:16;6.75;;;3.78;;
37983;SDS011;64625;50.882;4.376;2023-03-23T02:13:44;5.70;;;3.83;;
37983;SDS011;64625;50.882;4.376;2023-03-23T02:24:37;7.50;;;2.53;;
37983;SDS011;64625;50.882;4.376;2023-03-23T02:38:16;5.47;;;1.88;;
37983;SDS011;64625;50.882;4.376;2023-03-23T02:40:47;7.25;;;2.00;;
37983;SDS011;64625;50.882;4.376;2023-03-23T02:43:21;6.25;;;2.03;;
37983;SDS011;64625;50.882;4.376;2023-03-23T02:45:51;5.30;;;1.83;;
37983;SDS011;64625;50.882;4.376;2023-03-23T02:48:19;4.75;;;1.83;;
37983;SDS011;64625;50.882;4.376;2023-03-23T02:50:50;6.65;;;1.77;;
37983;SDS011;64625;50.882;4.376;2023-03-23T02:53:18;4.78;;;1.65;;
37983;SDS011;64625;50.882;4.376;2023-03-23T02:55:47;4.20;;;1.48;;
37983;SDS011;64625;50.882;4.376;2023-03-23T02:58:13;2.90;;;1.45;;
37983;SDS011;64625;50.882;4.376;2023-03-23T03:00:40;5.60;;;1.85;;
37983;SDS011;64625;50.882;4.376;2023-03-23T03:03:08;5.72;;;2.15;;
37983;SDS011;64625;50.882;4.376;2023-03-23T03:05:42;7.13;;;1.75;;
37983;SDS011;64625;50.882;4.376;2023-03-23T03:11:08;10.48;;;2.22;;
37983;SDS011;64625;50.882;4.376;2023-03-23T03:13:53;4.78;;;1.77;;
37983;SDS011;64625;50.882;4.376;2023-03-23T03:16:47;5.28;;;1.65;;
37983;SDS011;64625;50.882;4.376;2023-03-23T03:19:29;6.00;;;1.48;;
37983;SDS011;64625;50.882;4.376;2023-03-23T03:21:57;2.20;;;1.15;;
37983;SDS011;64625;50.882;4.376;2023-03-23T03:24:26;6.57;;;1.60;;
37983;SDS011;64625;50.882;4.376;2023-03-23T03:26:54;3.53;;;1.67;;
37983;SDS011;64625;50.882;4.376;2023-03-23T03:29:29;3.40;;;1.02;;
37983;SDS011;64625;50.882;4.376;2023-03-23T03:31:59;5.40;;;1.33;;
37983;SDS011;64625;50.882;4.376;2023-03-23T03:36:57;4.03;;;1.33;;
37983;SDS011;64625;50.882;4.376;2023-03-23T03:39:24;8.98;;;2.03;;
37983;SDS011;64625;50.882;4.376;2023-03-23T03:41:51;2.15;;;1.65;;
37983;SDS011;64625;50.882;4.376;2023-03-23T03:44:18;5.88;;;1.52;;
37983;SDS011;64625;50.882;4.376;2023-03-23T03:46:43;7.75;;;1.58;;
37983;SDS011;64625;50.882;4.376;2023-03-23T03:49:10;6.43;;;2.30;;
37983;SDS011;64625;50.882;4.376;2023-03-23T03:51:40;3.53;;;1.45;;
37983;SDS011;64625;50.882;4.376;2023-03-23T03:54:06;4.32;;;1.55;;
37983;SDS011;64625;50.882;4.376;2023-03-23T03:56:32;4.38;;;1.58;;
37983;SDS011;64625;50.882;4.376;2023-03-23T03:59:01;4.45;;;1.83;;
37983;SDS011;64625;50.882;4.376;2023-03-23T04:01:27;9.32;;;2.83;;
37983;SDS011;64625;50.882;4.376;2023-03-23T04:03:54;4.35;;;1.77;;
37983;SDS011;64625;50.882;4.376;2023-03-23T04:06:22;12.52;;;1.95;;
37983;SDS011;64625;50.882;4.376;2023-03-23T04:08:48;9.82;;;2.08;;
37983;SDS011;64625;50.882;4.376;2023-03-23T04:11:14;12.57;;;2.28;;
37983;SDS011;64625;50.882;4.376;2023-03-23T04:13:41;10.55;;;1.73;;
37983;SDS011;64625;50.882;4.376;2023-03-23T04:16:07;12.32;;;2.38;;
37983;SDS011;64625;50.882;4.376;2023-03-23T04:18:34;12.57;;;2.17;;
37983;SDS011;64625;50.882;4.376;2023-03-23T04:21:01;7.90;;;1.98;;
37983;SDS011;64625;50.882;4.376;2023-03-23T04:23:28;7.65;;;1.75;;
37983;SDS011;64625;50.882;4.376;2023-03-23T04:25:56;9.20;;;2.00;;
37983;SDS011;64625;50.882;4.376;2023-03-23T04:28:23;13.68;;;2.10;;
37983;SDS011;64625;50.882;4.376;2023-03-23T04:30:50;6.28;;;1.73;;
37983;SDS011;64625;50.882;4.376;2023-03-23T04:33:21;18.15;;;2.75;;
37983;SDS011;64625;50.882;4.376;2023-03-23T04:35:50;8.48;;;1.98;;
37983;SDS011;64625;50.882;4.376;2023-03-23T04:38:18;8.13;;;1.77;;
37983;SDS011;64625;50.882;4.376;2023-03-23T04:40:47;6.45;;;1.83;;
37983;SDS011;64625;50.882;4.376;2023-03-23T04:43:20;6.68;;;2.20;;
37983;SDS011;64625;50.882;4.376;2023-03-23T04:45:53;5.95;;;1.98;;
37983;SDS011;64625;50.882;4.376;2023-03-23T04:48:25;5.13;;;1.75;;
37983;SDS011;64625;50.882;4.376;2023-03-23T04:50:53;7.97;;;1.80;;
37983;SDS011;64625;50.882;4.376;2023-03-23T04:53:19;13.65;;;2.60;;
37983;SDS011;64625;50.882;4.376;2023-03-23T04:55:46;7.25;;;1.60;;
37983;SDS011;64625;50.882;4.376;2023-03-23T04:58:13;10.45;;;2.85;;
37983;SDS011;64625;50.882;4.376;2023-03-23T05:00:40;10.57;;;2.65;;
37983;SDS011;64625;50.882;4.376;2023-03-23T05:03:09;16.58;;;2.83;;
37983;SDS011;64625;50.882;4.376;2023-03-23T05:05:36;7.85;;;1.92;;
37983;SDS011;64625;50.882;4.376;2023-03-23T05:08:03;10.48;;;2.35;;
37983;SDS011;64625;50.882;4.376;2023-03-23T05:10:29;14.15;;;2.10;;
37983;SDS011;64625;50.882;4.376;2023-03-23T05:12:55;5.95;;;1.88;;
37983;SDS011;64625;50.882;4.376;2023-03-23T05:15:21;9.27;;;1.52;;
37983;SDS011;64625;50.882;4.376;2023-03-23T05:17:47;5.35;;;2.15;;
37983;SDS011;64625;50.882;4.376;2023-03-23T05:20:14;7.32;;;1.60;;
37983;SDS011;64625;50.882;4.376;2023-03-23T05:22:45;10.98;;;2.13;;
37983;SDS011;64625;50.882;4.376;2023-03-23T05:25:13;9.45;;;2.17;;
37983;SDS011;64625;50.882;4.376;2023-03-23T05:27:39;15.32;;;2.15;;
37983;SDS011;64625;50.882;4.376;2023-03-23T05:30:09;5.72;;;2.05;;
37983;SDS011;64625;50.882;4.376;2023-03-23T05:32:36;7.75;;;1.42;;
37983;SDS011;64625;50.882;4.376;2023-03-23T05:35:02;8.32;;;1.90;;
37983;SDS011;64625;50.882;4.376;2023-03-23T05:37:28;5.43;;;1.48;;
37983;SDS011;64625;50.882;4.376;2023-03-23T05:39:57;11.40;;;1.83;;
37983;SDS011;64625;50.882;4.376;2023-03-23T05:42:30;9.80;;;1.67;;
37983;SDS011;64625;50.882;4.376;2023-03-23T05:44:58;12.05;;;2.70;;
37983;SDS011;64625;50.882;4.376;2023-03-23T05:47:24;12.98;;;2.33;;
37983;SDS011;64625;50.882;4.376;2023-03-23T05:49:50;8.82;;;1.75;;
37983;SDS011;64625;50.882;4.376;2023-03-23T05:52:17;6.90;;;1.27;;
37983;SDS011;64625;50.882;4.376;2023-03-23T05:54:44;12.25;;;2.88;;
37983;SDS011;64625;50.882;4.376;2023-03-23T05:57:13;8.95;;;2.22;;
37983;SDS011;64625;50.882;4.376;2023-03-23T05:59:39;18.33;;;2.38;;
37983;SDS011;64625;50.882;4.376;2023-03-23T06:02:04;9.20;;;2.65;;
37983;SDS011;64625;50.882;4.376;2023-03-23T06:04:30;8.85;;;2.47;;
37983;SDS011;64625;50.882;4.376;2023-03-23T06:07:01;10.65;;;2.35;;
37983;SDS011;64625;50.882;4.376;2023-03-23T06:09:27;14.98;;;2.15;;
37983;SDS011;64625;50.882;4.376;2023-03-23T06:11:54;18.55;;;2.63;;
37983;SDS011;64625;50.882;4.376;2023-03-23T06:14:20;14.27;;;2.15;;
37983;SDS011;64625;50.882;4.376;2023-03-23T06:16:46;6.97;;;2.55;;
37983;SDS011;64625;50.882;4.376;2023-03-23T06:19:13;12.32;;;2.03;;
37983;SDS011;64625;50.882;4.376;2023-03-23T06:21:40;6.95;;;2.33;;
37983;SDS011;64625;50.882;4.376;2023-03-23T06:24:07;9.88;;;2.55;;
37983;SDS011;64625;50.882;4.376;2023-03-23T06:26:35;16.77;;;2.25;;
37983;SDS011;64625;50.882;4.376;2023-03-23T06:29:03;7.80;;;2.78;;
37983;SDS011;64625;50.882;4.376;2023-03-23T06:31:40;12.13;;;2.35;;
37983;SDS011;64625;50.882;4.376;2023-03-23T06:34:10;13.82;;;2.60;;
37983;SDS011;64625;50.882;4.376;2023-03-23T06:36:36;5.32;;;2.00;;
37983;SDS011;64625;50.882;4.376;2023-03-23T06:39:03;7.80;;;2.53;;
37983;SDS011;64625;50.882;4.376;2023-03-23T06:41:33;12.30;;;2.05;;
37983;SDS011;64625;50.882;4.376;2023-03-23T06:43:59;6.60;;;2.67;;
37983;SDS011;64625;50.882;4.376;2023-03-23T06:46:26;20.75;;;2.92;;
37983;SDS011;64625;50.882;4.376;2023-03-23T06:48:53;9.93;;;2.15;;
37983;SDS011;64625;50.882;4.376;2023-03-23T06:51:20;9.27;;;2.00;;
37983;SDS011;64625;50.882;4.376;2023-03-23T06:53:46;10.13;;;2.75;;
37983;SDS011;64625;50.882;4.376;2023-03-23T06:56:12;5.50;;;2.25;;
37983;SDS011;64625;50.882;4.376;2023-03-23T06:58:39;15.82;;;2.85;;
37983;SDS011;64625;50.882;4.376;2023-03-23T07:01:07;4.82;;;1.27;;
37983;SDS011;64625;50.882;4.376;2023-03-23T07:03:33;3.13;;;1.45;;
37983;SDS011;64625;50.882;4.376;2023-03-23T07:05:59;12.55;;;1.45;;
37983;SDS011;64625;50.882;4.376;2023-03-23T07:08:25;3.60;;;1.30;;
37983;SDS011;64625;50.882;4.376;2023-03-23T07:10:54;3.50;;;1.52;;
37983;SDS011;64625;50.882;4.376;2023-03-23T07:13:21;4.97;;;1.20;;
37983;SDS011;64625;50.882;4.376;2023-03-23T07:15:47;9.75;;;2.53;;
37983;SDS011;64625;50.882;4.376;2023-03-23T07:18:14;8.05;;;1.50;;
37983;SDS011;64625;50.882;4.376;2023-03-23T07:20:40;2.35;;;1.00;;
37983;SDS011;64625;50.882;4.376;2023-03-23T07:23:06;3.25;;;0.98;;
37983;SDS011;64625;50.882;4.376;2023-03-23T07:25:33;2.45;;;1.15;;
37983;SDS011;64625;50.882;4.376;2023-03-23T07:28:00;6.40;;;1.17;;
37983;SDS011;64625;50.882;4.376;2023-03-23T07:30:28;3.65;;;1.50;;
37983;SDS011;64625;50.882;4.376;2023-03-23T07:32:56;10.35;;;2.08;;
37983;SDS011;64625;50.882;4.376;2023-03-23T07:35:23;2.42;;;1.20;;
37983;SDS011;64625;50.882;4.376;2023-03-23T07:37:50;9.77;;;1.60;;
37983;SDS011;64625;50.882;4.376;2023-03-23T07:40:17;4.18;;;1.48;;
37983;SDS011;64625;50.882;4.376;2023-03-23T07:42:51;2.58;;;1.20;;
37983;SDS011;64625;50.882;4.376;2023-03-23T07:45:18;5.72;;;2.10;;
37983;SDS011;64625;50.882;4.376;2023-03-23T07:47:45;16.65;;;2.13;;
37983;SDS011;64625;50.882;4.376;2023-03-23T07:50:11;3.17;;;2.88;;
37983;SDS011;64625;50.882;4.376;2023-03-23T07:52:40;16.33;;;3.00;;
37983;SDS011;64625;50.882;4.376;2023-03-23T07:55:07;10.13;;;1.77;;
37983;SDS011;64625;50.882;4.376;2023-03-23T07:57:36;8.40;;;2.00;;
37983;SDS011;64625;50.882;4.376;2023-03-23T08:00:03;9.38;;;3.80;;
37983;SDS011;64625;50.882;4.376;2023-03-23T08:02:57;5.55;;;3.50;;
37983;SDS011;64625;50.882;4.376;2023-03-23T08:05:26;14.00;;;2.97;;
37983;SDS011;64625;50.882;4.376;2023-03-23T08:07:53;9.35;;;3.28;;
37983;SDS011;64625;50.882;4.376;2023-03-23T08:10:20;4.28;;;2.78;;
37983;SDS011;64625;50.882;4.376;2023-03-23T08:12:54;6.25;;;2.70;;
37983;SDS011;64625;50.882;4.376;2023-03-23T08:17:47;7.22;;;2.30;;
37983;SDS011;64625;50.882;4.376;2023-03-23T08:20:14;8.77;;;2.40;;
37983;SDS011;64625;50.882;4.376;2023-03-23T08:22:48;9.63;;;2.53;;
37983;SDS011;64625;50.882;4.376;2023-03-23T08:25:17;12.25;;;2.40;;
37983;SDS011;64625;50.882;4.376;2023-03-23T08:27:44;4.10;;;2.05;;
37983;SDS011;64625;50.882;4.376;2023-03-23T08:30:12;3.50;;;2.00;;
37983;SDS011;64625;50.882;4.376;2023-03-23T08:32:40;6.68;;;1.52;;
37983;SDS011;64625;50.882;4.376;2023-03-23T08:35:07;9.63;;;1.85;;
37983;SDS011;64625;50.882;4.376;2023-03-23T08:37:34;6.25;;;1.65;;
37983;SDS011;64625;50.882;4.376;2023-03-23T08:40:01;12.13;;;3.55;;
37983;SDS011;64625;50.882;4.376;2023-03-23T08:42:41;5.95;;;2.22;;
37983;SDS011;64625;50.882;4.376;2023-03-23T08:45:08;3.03;;;1.35;;
37983;SDS011;64625;50.882;4.376;2023-03-23T08:47:37;7.85;;;2.45;;
37983;SDS011;64625;50.882;4.376;2023-03-23T08:50:04;5.00;;;1.92;;
37983;SDS011;64625;50.882;4.376;2023-03-23T08:52:31;8.38;;;2.17;;
37983;SDS011;64625;50.882;4.376;2023-03-23T08:54:57;12.65;;;2.05;;
37983;SDS011;64625;50.882;4.376;2023-03-23T08:59:55;9.30;;;2.20;;
37983;SDS011;64625;50.882;4.376;2023-03-23T09:02:25;5.60;;;2.13;;
37983;SDS011;64625;50.882;4.376;2023-03-23T09:04:52;6.07;;;1.90;;
37983;SDS011;64625;50.882;4.376;2023-03-23T09:07:19;3.28;;;1.50;;
37983;SDS011;64625;50.882;4.376;2023-03-23T09:09:45;10.48;;;2.80;;
37983;SDS011;64625;50.882;4.376;2023-03-23T09:12:11;7.10;;;2.30;;
37983;SDS011;64625;50.882;4.376;2023-03-23T09:14:39;8.45;;;3.05;;
37983;SDS011;64625;50.882;4.376;2023-03-23T09:17:05;7.45;;;2.03;;
37983;SDS011;64625;50.882;4.376;2023-03-23T09:19:32;15.48;;;2.28;;
37983;SDS011;64625;50.882;4.376;2023-03-23T09:22:00;3.63;;;1.85;;
37983;SDS011;64625;50.882;4.376;2023-03-23T09:24:26;6.25;;;1.80;;
37983;SDS011;64625;50.882;4.376;2023-03-23T09:26:53;5.60;;;2.50;;
37983;SDS011;64625;50.882;4.376;2023-03-23T09:29:21;9.77;;;2.50;;
37983;SDS011;64625;50.882;4.376;2023-03-23T09:31:47;8.07;;;2.05;;
37983;SDS011;64625;50.882;4.376;2023-03-23T09:34:13;5.18;;;2.55;;
37983;SDS011;64625;50.882;4.376;2023-03-23T09:36:46;7.82;;;2.15;;
37983;SDS011;64625;50.882;4.376;2023-03-23T09:39:12;6.13;;;2.33;;
37983;SDS011;64625;50.882;4.376;2023-03-23T09:47:58;5.18;;;1.73;;
37983;SDS011;64625;50.882;4.376;2023-03-23T09:50:33;8.70;;;2.60;;
37983;SDS011;64625;50.882;4.376;2023-03-23T09:53:04;5.90;;;2.10;;
37983;SDS011;64625;50.882;4.376;2023-03-23T09:55:45;5.70;;;3.20;;
37983;SDS011;64625;50.882;4.376;2023-03-23T10:01:07;3.58;;;2.20;;
37983;SDS011;64625;50.882;4.376;2023-03-23T10:03:43;7.57;;;3.25;;
37983;SDS011;64625;50.882;4.376;2023-03-23T10:06:13;9.07;;;3.10;;
37983;SDS011;64625;50.882;4.376;2023-03-23T10:08:49;4.28;;;2.38;;
37983;SDS011;64625;50.882;4.376;2023-03-23T10:20:04;13.40;;;3.92;;
37983;SDS011;64625;50.882;4.376;2023-03-23T10:22:48;7.53;;;3.00;;
37983;SDS011;64625;50.882;4.376;2023-03-23T10:25:34;7.50;;;2.92;;
37983;SDS011;64625;50.882;4.376;2023-03-23T10:30:41;9.00;;;3.42;;
37983;SDS011;64625;50.882;4.376;2023-03-23T10:35:56;5.03;;;2.78;;
37983;SDS011;64625;50.882;4.376;2023-03-23T10:38:33;10.90;;;3.30;;
37983;SDS011;64625;50.882;4.376;2023-03-23T10:41:12;4.35;;;2.97;;
37983;SDS011;64625;50.882;4.376;2023-03-23T10:43:42;7.38;;;3.45;;
37983;SDS011;64625;50.882;4.376;2023-03-23T10:48:57;7.30;;;2.15;;
37983;SDS011;64625;50.882;4.376;2023-03-23T10:51:32;8.45;;;2.40;;
37983;SDS011;64625;50.882;4.376;2023-03-23T10:54:02;8.25;;;2.67;;
37983;SDS011;64625;50.882;4.376;2023-03-23T10:56:40;10.38;;;3.88;;
37983;SDS011;64625;50.882;4.376;2023-03-23T10:59:14;11.77;;;2.80;;
37983;SDS011;64625;50.882;4.376;2023-03-23T11:01:47;14.85;;;3.35;;
37983;SDS011;64625;50.882;4.376;2023-03-23T11:04:16;13.20;;;3.35;;
37983;SDS011;64625;50.882;4.376;2023-03-23T11:07:02;8.43;;;2.75;;
37983;SDS011;64625;50.882;4.376;2023-03-23T11:09:36;12.30;;;3.65;;
37983;SDS011;64625;50.882;4.376;2023-03-23T11:12:03;6.45;;;3.00;;
37983;SDS011;64625;50.882;4.376;2023-03-23T11:14:31;12.27;;;2.70;;
37983;SDS011;64625;50.882;4.376;2023-03-23T11:17:00;17.02;;;2.97;;
37983;SDS011;64625;50.882;4.376;2023-03-23T11:19:33;8.70;;;2.88;;
37983;SDS011;64625;50.882;4.376;2023-03-23T11:24:31;12.10;;;4.47;;
37983;SDS011;64625;50.882;4.376;2023-03-23T11:27:22;19.65;;;3.88;;
37983;SDS011;64625;50.882;4.376;2023-03-23T11:29:56;15.18;;;3.63;;
37983;SDS011;64625;50.882;4.376;2023-03-23T11:32:33;17.35;;;3.28;;
37983;SDS011;64625;50.882;4.376;2023-03-23T11:35:02;18.50;;;4.45;;
37983;SDS011;64625;50.882;4.376;2023-03-23T11:42:44;17.90;;;3.53;;
37983;SDS011;64625;50.882;4.376;2023-03-23T11:58:51;8.38;;;3.15;;
37983;SDS011;64625;50.882;4.376;2023-03-23T12:01:24;18.88;;;5.68;;
37983;SDS011;64625;50.882;4.376;2023-03-23T12:07:01;21.83;;;4.50;;
37983;SDS011;64625;50.882;4.376;2023-03-23T12:09:55;13.10;;;3.58;;
37983;SDS011;64625;50.882;4.376;2023-03-23T12:15:44;16.10;;;2.42;;
37983;SDS011;64625;50.882;4.376;2023-03-23T12:52:25;12.55;;;3.60;;
37983;SDS011;64625;50.882;4.376;2023-03-23T12:58:18;12.93;;;2.85;;
37983;SDS011;64625;50.882;4.376;2023-03-23T13:09:53;15.43;;;3.47;;
37983;SDS011;64625;50.882;4.376;2023-03-23T13:11:45;13.98;;;4.20;;
37983;SDS011;64625;50.882;4.376;2023-03-23T13:25:45;17.88;;;3.85;;
37983;SDS011;64625;50.882;4.376;2023-03-23T13:28:25;9.35;;;2.85;;
37983;SDS011;64625;50.882;4.376;2023-03-23T13:30:54;12.30;;;4.05;;
37983;SDS011;64625;50.882;4.376;2023-03-23T13:33:37;17.52;;;2.92;;
37983;SDS011;64625;50.882;4.376;2023-03-23T13:36:12;13.40;;;3.20;;
37983;SDS011;64625;50.882;4.376;2023-03-23T13:38:49;14.55;;;3.03;;
37983;SDS011;64625;50.882;4.376;2023-03-23T13:41:17;13.57;;;3.35;;
37983;SDS011;64625;50.882;4.376;2023-03-23T13:43:46;26.70;;;2.78;;
37983;SDS011;64625;50.882;4.376;2023-03-23T13:49:15;12.13;;;2.63;;
37983;SDS011;64625;50.882;4.376;2023-03-23T13:54:24;12.40;;;3.08;;
37983;SDS011;64625;50.882;4.376;2023-03-23T13:57:01;20.45;;;3.40;;
37983;SDS011;64625;50.882;4.376;2023-03-23T14:10:58;9.30;;;3.00;;
37983;SDS011;64625;50.882;4.376;2023-03-23T14:13:30;15.90;;;2.50;;
37983;SDS011;64625;50.882;4.376;2023-03-23T14:16:17;6.40;;;2.20;;
37983;SDS011;64625;50.882;4.376;2023-03-23T14:18:48;12.50;;;3.30;;
37983;SDS011;64625;50.882;4.376;2023-03-23T14:21:36;13.10;;;3.15;;
37983;SDS011;64625;50.882;4.376;2023-03-23T14:24:27;13.10;;;4.38;;
37983;SDS011;64625;50.882;4.376;2023-03-23T14:27:01;9.00;;;2.83;;
37983;SDS011;64625;50.882;4.376;2023-03-23T14:29:30;18.15;;;3.03;;
37983;SDS011;64625;50.882;4.376;2023-03-23T14:31:57;16.00;;;3.75;;
37983;SDS011;64625;50.882;4.376;2023-03-23T14:34:24;10.50;;;2.88;;
37983;SDS011;64625;50.882;4.376;2023-03-23T14:36:53;15.13;;;3.40;;
37983;SDS011;64625;50.882;4.376;2023-03-23T14:39:30;14.02;;;2.80;;
37983;SDS011;64625;50.882;4.376;2023-03-23T14:42:01;17.38;;;2.70;;
37983;SDS011;64625;50.882;4.376;2023-03-23T14:44:32;13.45;;;4.68;;
37983;SDS011;64625;50.882;4.376;2023-03-23T14:47:04;17.63;;;4.70;;
37983;SDS011;64625;50.882;4.376;2023-03-23T14:49:37;11.98;;;2.88;;
37983;SDS011;64625;50.882;4.376;2023-03-23T14:54:38;9.88;;;2.85;;
37983;SDS011;64625;50.882;4.376;2023-03-23T15:00:20;12.30;;;3.53;;
37983;SDS011;64625;50.882;4.376;2023-03-23T15:02:58;12.15;;;2.60;;
37983;SDS011;64625;50.882;4.376;2023-03-23T15:05:30;14.55;;;2.92;;
37983;SDS011;64625;50.882;4.376;2023-03-23T15:08:05;11.85;;;3.45;;
37983;SDS011;64625;50.882;4.376;2023-03-23T15:10:35;22.13;;;5.05;;
37983;SDS011;64625;50.882;4.376;2023-03-23T15:13:01;16.10;;;2.92;;
37983;SDS011;64625;50.882;4.376;2023-03-23T15:15:31;18.67;;;3.15;;
37983;SDS011;64625;50.882;4.376;2023-03-23T15:18:00;10.00;;;2.95;;
37983;SDS011;64625;50.882;4.376;2023-03-23T15:20:29;15.73;;;3.33;;
37983;SDS011;64625;50.882;4.376;2023-03-23T15:23:07;8.93;;;2.53;;
37983;SDS011;64625;50.882;4.376;2023-03-23T15:30:56;17.65;;;4.75;;
37983;SDS011;64625;50.882;4.376;2023-03-23T15:33:25;19.67;;;5.65;;
37983;SDS011;64625;50.882;4.376;2023-03-23T15:35:55;21.00;;;5.90;;
37983;SDS011;64625;50.882;4.376;2023-03-23T15:38:26;13.40;;;6.03;;
37983;SDS011;64625;50.882;4.376;2023-03-23T15:41:00;31.08;;;11.27;;
37983;SDS011;64625;50.882;4.376;2023-03-23T15:43:31;19.20;;;7.07;;
37983;SDS011;64625;50.882;4.376;2023-03-23T15:46:32;24.70;;;5.20;;
37983;SDS011;64625;50.882;4.376;2023-03-23T15:51:26;10.73;;;3.72;;
37983;SDS011;64625;50.882;4.376;2023-03-23T15:53:54;22.23;;;4.50;;
37983;SDS011;64625;50.882;4.376;2023-03-23T15:56:21;12.50;;;3.38;;
37983;SDS011;64625;50.882;4.376;2023-03-23T15:58:48;12.68;;;3.70;;
37983;SDS011;64625;50.882;4.376;2023-03-23T16:01:20;13.35;;;4.00;;
37983;SDS011;64625;50.882;4.376;2023-03-23T16:03:51;12.57;;;3.55;;
37983;SDS011;64625;50.882;4.376;2023-03-23T16:06:18;15.23;;;4.50;;
37983;SDS011;64625;50.882;4.376;2023-03-23T16:08:45;20.27;;;4.63;;
37983;SDS011;64625;50.882;4.376;2023-03-23T16:11:16;18.42;;;3.65;;
37983;SDS011;64625;50.882;4.376;2023-03-23T16:13:43;8.20;;;3.15;;
37983;SDS011;64625;50.882;4.376;2023-03-23T16:16:17;17.38;;;5.20;;
37983;SDS011;64625;50.882;4.376;2023-03-23T16:18:47;10.88;;;3.25;;
37983;SDS011;64625;50.882;4.376;2023-03-23T16:21:13;13.75;;;3.10;;
37983;SDS011;64625;50.882;4.376;2023-03-23T16:23:39;14.65;;;2.47;;
37983;SDS011;64625;50.882;4.376;2023-03-23T16:26:08;9.27;;;2.28;;
37983;SDS011;64625;50.882;4.376;2023-03-23T16:28:36;8.80;;;2.22;;
37983;SDS011;64625;50.882;4.376;2023-03-23T16:31:02;12.40;;;3.78;;
37983;SDS011;64625;50.882;4.376;2023-03-23T16:33:28;11.15;;;2.75;;
37983;SDS011;64625;50.882;4.376;2023-03-23T16:35:54;15.00;;;3.80;;
37983;SDS011;64625;50.882;4.376;2023-03-23T16:38:21;13.65;;;3.15;;
37983;SDS011;64625;50.882;4.376;2023-03-23T16:40:48;16.17;;;3.70;;
37983;SDS011;64625;50.882;4.376;2023-03-23T16:43:14;7.38;;;3.28;;
37983;SDS011;64625;50.882;4.376;2023-03-23T16:45:40;12.35;;;3.80;;
37983;SDS011;64625;50.882;4.376;2023-03-23T16:48:08;22.50;;;4.63;;
37983;SDS011;64625;50.882;4.376;2023-03-23T16:50:35;14.60;;;4.40;;
37983;SDS011;64625;50.882;4.376;2023-03-23T16:53:01;17.55;;;4.70;;
37983;SDS011;64625;50.882;4.376;2023-03-23T16:55:28;12.18;;;3.97;;
37983;SDS011;64625;50.882;4.376;2023-03-23T16:57:55;10.77;;;3.03;;
37983;SDS011;64625;50.882;4.376;2023-03-23T17:00:21;11.18;;;3.60;;
37983;SDS011;64625;50.882;4.376;2023-03-23T17:02:49;19.90;;;4.38;;
37983;SDS011;64625;50.882;4.376;2023-03-23T17:05:16;17.50;;;3.83;;
37983;SDS011;64625;50.882;4.376;2023-03-23T17:07:44;21.65;;;4.97;;
37983;SDS011;64625;50.882;4.376;2023-03-23T17:10:11;11.02;;;3.50;;
37983;SDS011;64625;50.882;4.376;2023-03-23T17:12:38;11.77;;;4.72;;
37983;SDS011;64625;50.882;4.376;2023-03-23T17:15:05;13.25;;;3.50;;
37983;SDS011;64625;50.882;4.376;2023-03-23T17:17:32;13.55;;;3.22;;
37983;SDS011;64625;50.882;4.376;2023-03-23T17:19:58;16.17;;;4.32;;
37983;SDS011;64625;50.882;4.376;2023-03-23T17:22:24;10.20;;;3.55;;
37983;SDS011;64625;50.882;4.376;2023-03-23T17:24:50;16.30;;;3.13;;
37983;SDS011;64625;50.882;4.376;2023-03-23T17:27:17;22.67;;;4.75;;
37983;SDS011;64625;50.882;4.376;2023-03-23T17:29:44;10.13;;;3.63;;
37983;SDS011;64625;50.882;4.376;2023-03-23T17:32:10;9.82;;;3.50;;
37983;SDS011;64625;50.882;4.376;2023-03-23T17:34:37;14.50;;;4.13;;
37983;SDS011;64625;50.882;4.376;2023-03-23T17:37:03;14.27;;;4.07;;
37983;SDS011;64625;50.882;4.376;2023-03-23T17:39:29;19.85;;;5.68;;
37983;SDS011;64625;50.882;4.376;2023-03-23T17:41:56;19.73;;;4.45;;
37983;SDS011;64625;50.882;4.376;2023-03-23T17:44:23;18.15;;;5.93;;
37983;SDS011;64625;50.882;4.376;2023-03-23T17:46:48;17.30;;;4.60;;
37983;SDS011;64625;50.882;4.376;2023-03-23T17:49:14;18.92;;;5.63;;
37983;SDS011;64625;50.882;4.376;2023-03-23T17:51:40;17.10;;;4.47;;